Time;durP1;ratioP1;P1;durP2;ratioP2;P2;SDS_P1;SDS_P2;PMS_P1;PMS_P2;Temp;Humidity;BMP_temperature;BMP_pressure;BME280_temperature;BME280_humidity;BME280_pressure;Samples;Min_cycle;Max_cycle;Signal;HPM_P1;HPM_P2
2023/09/06 00:01:18;;;;;;;8.38;3.50;;;;;18.80;98949.00;;;;4933546;29;20497;-65
2023/09/06 00:03:44;;;;;;;3.83;3.10;;;;;18.70;98948.00;;;;4934457;29;20424;-64
2023/09/06 00:06:11;;;;;;;5.50;2.90;;;;;18.60;98948.00;;;;4933757;29;20098;-65
2023/09/06 00:08:38;;;;;;;5.03;2.85;;;;;18.60;98951.00;;;;4933626;29;20056;-65
2023/09/06 00:11:05;;;;;;;4.55;3.03;;;;;18.60;98954.00;;;;4934806;29;20047;-65
2023/09/06 00:13:34;;;;;;;6.15;3.22;;;;;18.60;98954.00;;;;4917041;29;20146;-65
2023/09/06 00:16:02;;;;;;;5.47;3.03;;;;;18.50;98949.00;;;;4934681;29;20054;-65
2023/09/06 00:18:29;;;;;;;5.45;3.50;;;;;18.50;98950.00;;;;4934893;29;20519;-65
2023/09/06 00:20:57;;;;;;;8.95;3.05;;;;;18.40;98944.00;;;;4934808;29;20448;-65
2023/09/06 00:23:25;;;;;;;4.97;3.03;;;;;18.20;98945.00;;;;4934690;29;20064;-65
2023/09/06 00:25:55;;;;;;;4.00;3.03;;;;;18.30;98943.00;;;;4933241;29;20055;-65
2023/09/06 00:28:24;;;;;;;4.13;3.40;;;;;18.40;98940.00;;;;4934664;29;20432;-65
2023/09/06 00:30:56;;;;;;;6.65;3.03;;;;;18.30;98943.00;;;;4918069;29;20055;-65
2023/09/06 00:33:33;;;;;;;7.82;3.95;;;;;18.20;98939.00;;;;4933304;29;20063;-65
2023/09/06 00:36:02;;;;;;;8.35;3.28;;;;;18.00;98944.00;;;;4933776;29;20460;-64
2023/09/06 00:38:29;;;;;;;4.25;3.45;;;;;17.90;98938.00;;;;4935766;29;20468;-65
2023/09/06 00:40:57;;;;;;;7.65;3.65;;;;;17.90;98933.00;;;;4937053;29;20044;-65
2023/09/06 00:43:23;;;;;;;6.05;3.10;;;;;18.10;98930.00;;;;4938123;29;20044;-65
2023/09/06 00:45:51;;;;;;;3.53;3.03;;;;;18.00;98937.00;;;;4938173;29;20044;-65
2023/09/06 00:48:25;;;;;;;7.78;2.95;;;;;18.00;98940.00;;;;4939843;29;20075;-64
2023/09/06 00:50:54;;;;;;;5.60;3.15;;;;;18.00;98937.00;;;;4936979;29;20047;-65
2023/09/06 00:53:23;;;;;;;6.78;3.22;;;;;18.00;98934.00;;;;4937898;29;20044;-65
2023/09/06 00:55:50;;;;;;;4.85;2.70;;;;;17.90;98938.00;;;;4936524;29;20147;-65
2023/09/06 00:58:18;;;;;;;6.10;2.80;;;;;17.90;98940.00;;;;4936672;29;20047;-65
2023/09/06 01:00:49;;;;;;;7.93;3.08;;;;;17.80;98936.00;;;;4937727;29;20067;-65
2023/09/06 01:03:17;;;;;;;4.60;3.05;;;;;17.90;98939.00;;;;4939748;29;20469;-65
2023/09/06 01:05:50;;;;;;;3.92;2.70;;;;;17.90;98936.00;;;;4936646;29;20417;-65
2023/09/06 01:08:31;;;;;;;3.08;2.60;;;;;18.00;98940.00;;;;4936789;29;20133;-65
2023/09/06 01:11:21;;;;;;;5.65;3.22;;;;;18.00;98935.00;;;;4937963;29;20468;-65
2023/09/06 01:13:50;;;;;;;4.60;3.00;;;;;17.90;98932.00;;;;4935950;29;20461;-65
2023/09/06 01:16:38;;;;;;;5.63;3.35;;;;;17.80;98923.00;;;;4937710;29;20134;-65
2023/09/06 01:19:06;;;;;;;6.30;4.10;;;;;17.90;98938.00;;;;4937608;29;20055;-65
2023/09/06 01:21:40;;;;;;;3.88;2.90;;;;;18.00;98937.00;;;;4936758;29;20044;-65
2023/09/06 01:24:09;;;;;;;3.85;2.88;;;;;18.00;98935.00;;;;4936100;29;20095;-65
2023/09/06 01:26:36;;;;;;;5.38;2.90;;;;;18.00;98930.00;;;;4921354;29;20120;-65
2023/09/06 01:29:03;;;;;;;5.50;3.05;;;;;17.90;98934.00;;;;4936762;29;20056;-68
2023/09/06 01:31:30;;;;;;;4.22;3.00;;;;;18.00;98932.00;;;;4936748;29;20121;-65
2023/09/06 01:33:57;;;;;;;5.07;3.13;;;;;17.90;98938.00;;;;4937579;29;20130;-65
2023/09/06 01:36:24;;;;;;;6.63;3.03;;;;;17.90;98935.00;;;;4937234;29;20090;-65
2023/09/06 01:38:53;;;;;;;5.82;3.00;;;;;17.90;98938.00;;;;4936780;29;20051;-65
2023/09/06 01:41:20;;;;;;;3.70;3.00;;;;;17.80;98942.00;;;;4936207;29;20138;-65
2023/09/06 01:43:50;;;;;;;4.75;2.95;;;;;17.80;98932.00;;;;4935351;29;20115;-65
2023/09/06 01:46:16;;;;;;;5.53;2.63;;;;;17.80;98936.00;;;;4937402;29;20048;-65
2023/09/06 01:48:43;;;;;;;3.25;2.92;;;;;17.80;98947.00;;;;4936004;29;20106;-64
2023/09/06 01:51:10;;;;;;;4.15;3.03;;;;;17.80;98945.00;;;;4937383;29;20048;-65
2023/09/06 01:53:36;;;;;;;3.95;2.80;;;;;17.80;98945.00;;;;4936259;29;20040;-65
2023/09/06 01:56:04;;;;;;;4.68;2.83;;;;;17.70;98948.00;;;;4935990;29;20051;-64
2023/09/06 01:58:32;;;;;;;4.35;3.17;;;;;17.60;98939.00;;;;4920246;29;20051;-65
2023/09/06 02:01:00;;;;;;;5.03;3.08;;;;;17.50;98941.00;;;;4935847;29;20075;-65
2023/09/06 02:03:27;;;;;;;6.45;3.50;;;;;17.30;98939.00;;;;4936736;29;20519;-64
2023/09/06 02:05:54;;;;;;;4.45;3.45;;;;;17.10;98933.00;;;;4935878;29;20052;-65
2023/09/06 02:08:21;;;;;;;4.85;3.30;;;;;17.00;98935.00;;;;4935810;29;20044;-65
2023/09/06 02:10:48;;;;;;;4.38;2.88;;;;;17.00;98931.00;;;;4936262;29;20497;-65
2023/09/06 02:13:15;;;;;;;5.32;3.30;;;;;16.80;98934.00;;;;4937071;29;20044;-65
2023/09/06 02:15:41;;;;;;;4.55;3.55;;;;;16.80;98926.00;;;;4934788;29;20043;-65
2023/09/06 02:18:09;;;;;;;3.97;3.53;;;;;16.70;98924.00;;;;4936698;29;20039;-64
2023/09/06 02:20:39;;;;;;;5.18;3.33;;;;;16.60;98924.00;;;;4935662;29;20080;-64
2023/09/06 02:23:07;;;;;;;4.22;3.60;;;;;16.50;98922.00;;;;4919925;29;20134;-65
2023/09/06 02:25:34;;;;;;;6.43;4.38;;;;;16.50;98918.00;;;;4919131;29;20048;-64
2023/09/06 02:28:03;;;;;;;7.38;3.30;;;;;16.50;98924.00;;;;4936552;29;20605;-65
2023/09/06 02:30:31;;;;;;;5.30;3.90;;;;;16.50;98921.00;;;;4936575;29;20139;-65
2023/09/06 02:32:58;;;;;;;6.13;3.60;;;;;16.40;98917.00;;;;4935078;29;20120;-65
2023/09/06 02:35:24;;;;;;;4.97;3.78;;;;;16.30;98925.00;;;;4934231;29;20043;-65
2023/09/06 02:37:51;;;;;;;4.40;3.60;;;;;16.20;98920.00;;;;4937561;29;20413;-65
2023/09/06 02:40:20;;;;;;;7.60;3.40;;;;;16.20;98921.00;;;;4943395;29;20052;-65
2023/09/06 02:42:51;;;;;;;5.05;3.75;;;;;16.10;98923.00;;;;4928494;29;20051;-65
2023/09/06 02:45:18;;;;;;;6.78;3.67;;;;;16.00;98923.00;;;;4944079;29;20417;-65
2023/09/06 02:47:49;;;;;;;4.85;3.55;;;;;16.00;98926.00;;;;4930321;29;20059;-66
2023/09/06 02:50:18;;;;;;;5.68;3.40;;;;;16.10;98926.00;;;;4944623;29;20080;-65
2023/09/06 02:52:45;;;;;;;5.00;3.88;;;;;16.00;98929.00;;;;4946919;29;20120;-65
2023/09/06 02:55:13;;;;;;;8.18;3.40;;;;;16.00;98929.00;;;;4948602;29;20685;-65
2023/09/06 02:57:41;;;;;;;4.60;3.30;;;;;16.10;98934.00;;;;4942204;29;20048;-65
2023/09/06 03:00:26;;;;;;;6.20;3.35;;;;;16.10;98927.00;;;;4944209;29;20119;-65
2023/09/06 03:03:07;;;;;;;5.95;3.42;;;;;16.10;98925.00;;;;4943978;29;20055;-65
2023/09/06 03:05:41;;;;;;;4.72;3.70;;;;;16.00;98927.00;;;;4950803;29;20055;-65
2023/09/06 03:08:13;;;;;;;6.35;3.72;;;;;16.10;98925.00;;;;4949620;29;20071;-65
2023/09/06 03:10:41;;;;;;;4.43;2.80;;;;;16.10;98931.00;;;;4930882;29;20055;-65
2023/09/06 03:13:11;;;;;;;7.15;3.72;;;;;16.10;98930.00;;;;4942728;29;20428;-65
2023/09/06 03:15:43;;;;;;;7.15;3.78;;;;;16.10;98923.00;;;;4930182;29;20043;-65
2023/09/06 03:18:11;;;;;;;3.80;3.30;;;;;16.20;98938.00;;;;4943240;29;20051;-65
2023/09/06 03:20:44;;;;;;;5.97;3.15;;;;;16.30;98938.00;;;;4928703;29;20425;-65
2023/09/06 03:23:30;;;;;;;9.43;6.13;;;;;16.40;98942.00;;;;4930129;29;20136;-65
2023/09/06 03:25:59;;;;;;;5.35;3.58;;;;;16.30;98941.00;;;;4942981;29;20039;-65
2023/09/06 03:28:33;;;;;;;4.30;3.80;;;;;16.40;98937.00;;;;4946452;29;20119;-65
2023/09/06 03:31:00;;;;;;;4.88;3.72;;;;;16.40;98930.00;;;;4955654;29;20061;-65
2023/09/06 03:33:29;;;;;;;4.15;3.38;;;;;16.30;98927.00;;;;4949730;29;20135;-65
2023/09/06 03:35:56;;;;;;;4.22;3.10;;;;;16.20;98935.00;;;;4944070;29;20051;-65
2023/09/06 03:38:25;;;;;;;6.15;3.38;;;;;16.10;98933.00;;;;4928582;29;20043;-66
2023/09/06 03:40:53;;;;;;;4.35;3.42;;;;;16.00;98936.00;;;;4941458;29;20052;-65
2023/09/06 03:43:29;;;;;;;5.80;4.35;;;;;15.90;98935.00;;;;4943519;29;20094;-65
2023/09/06 03:45:58;;;;;;;7.45;3.50;;;;;15.80;98939.00;;;;4941159;29;20051;-65
2023/09/06 03:48:27;;;;;;;5.03;3.67;;;;;15.70;98938.00;;;;4945673;29;20099;-65
2023/09/06 03:50:59;;;;;;;6.78;3.53;;;;;15.60;98934.00;;;;4944435;29;20079;-66
2023/09/06 03:53:27;;;;;;;4.68;3.75;;;;;15.50;98932.00;;;;4943981;29;20066;-65
2023/09/06 03:55:57;;;;;;;4.72;3.88;;;;;15.40;98935.00;;;;4944380;29;20102;-65
2023/09/06 03:58:34;;;;;;;4.45;3.88;;;;;15.40;98937.00;;;;4928711;29;20051;-65
2023/09/06 04:01:03;;;;;;;6.47;3.47;;;;;15.40;98942.00;;;;4942549;29;20050;-65
2023/09/06 04:03:32;;;;;;;4.50;3.90;;;;;15.40;98941.00;;;;4939574;29;20047;-65
2023/09/06 04:06:02;;;;;;;4.82;3.30;;;;;15.30;98948.00;;;;4939893;29;20048;-65
2023/09/06 04:08:30;;;;;;;8.43;4.78;;;;;15.30;98938.00;;;;4938985;29;20051;-65
2023/09/06 04:10:59;;;;;;;9.18;5.30;;;;;15.40;98947.00;;;;4938481;29;20528;-65
2023/09/06 04:13:28;;;;;;;4.75;4.03;;;;;15.50;98947.00;;;;4940168;29;20061;-64
2023/09/06 04:15:56;;;;;;;12.50;9.45;;;;;15.60;98948.00;;;;4941678;29;20044;-65
2023/09/06 04:18:24;;;;;;;7.68;5.57;;;;;15.50;98933.00;;;;4925642;29;20051;-65
2023/09/06 04:20:51;;;;;;;5.18;3.60;;;;;15.40;98943.00;;;;4941372;29;20047;-65
2023/09/06 04:23:19;;;;;;;4.35;3.95;;;;;15.30;98940.00;;;;4925887;29;20062;-65
2023/09/06 04:25:55;;;;;;;6.85;3.80;;;;;15.40;98941.00;;;;4941422;29;20099;-65
2023/09/06 04:28:27;;;;;;;;;;;;;15.50;98946.00;;;;4939272;29;20047;-65
2023/09/06 04:30:58;;;;;;;8.32;4.20;;;;;15.50;98941.00;;;;4939345;29;20009;-65
2023/09/06 04:33:29;;;;;;;6.53;4.05;;;;;15.40;98941.00;;;;4923313;29;20044;-65
2023/09/06 04:36:04;;;;;;;4.67;4.13;;;;;15.30;98940.00;;;;4937894;29;20044;-65
2023/09/06 04:38:33;;;;;;;9.70;5.03;;;;;15.30;98941.00;;;;4937600;29;20296;-65
2023/09/06 04:41:02;;;;;;;8.82;4.15;;;;;15.20;98944.00;;;;4937538;29;20043;-65
2023/09/06 04:43:36;;;;;;;7.32;3.83;;;;;15.20;98936.00;;;;4937096;29;20540;-65
2023/09/06 04:46:03;;;;;;;4.45;3.95;;;;;15.20;98944.00;;;;4936664;29;20539;-65
2023/09/06 04:48:34;;;;;;;8.68;4.07;;;;;15.10;98946.00;;;;4936633;29;20060;-64
2023/09/06 04:51:01;;;;;;;8.57;5.53;;;;;15.00;98937.00;;;;4922219;29;20051;-64
2023/09/06 04:53:28;;;;;;;7.75;3.92;;;;;14.90;98939.00;;;;4936928;29;20051;-65
2023/09/06 04:55:57;;;;;;;4.78;4.15;;;;;14.90;98939.00;;;;4921503;29;20058;-65
2023/09/06 04:58:33;;;;;;;8.38;6.32;;;;;14.90;98941.00;;;;4938520;29;20059;-65
2023/09/06 05:01:05;;;;;;;7.95;5.25;;;;;14.90;98946.00;;;;4937254;29;20468;-65
2023/09/06 05:03:33;;;;;;;7.55;4.60;;;;;15.00;98942.00;;;;4936925;29;20056;-65
2023/09/06 05:06:02;;;;;;;8.48;5.65;;;;;15.00;98941.00;;;;4936878;29;20068;-65
2023/09/06 05:08:30;;;;;;;9.35;4.97;;;;;15.00;98945.00;;;;4938069;29;20473;-65
2023/09/06 05:10:59;;;;;;;8.38;4.28;;;;;15.10;98942.00;;;;4936707;29;20099;-65
2023/09/06 05:13:26;;;;;;;6.85;4.68;;;;;15.10;98938.00;;;;4936306;29;20099;-66
2023/09/06 05:16:00;;;;;;;9.40;5.28;;;;;15.10;98951.00;;;;4936619;29;20512;-65
2023/09/06 05:18:28;;;;;;;6.55;4.90;;;;;15.20;98943.00;;;;4936657;29;20054;-65
2023/09/06 05:20:56;;;;;;;5.03;4.53;;;;;15.30;98941.00;;;;4936393;29;20516;-65
2023/09/06 05:23:22;;;;;;;5.68;4.85;;;;;15.40;98950.00;;;;4936344;29;20052;-65
2023/09/06 05:25:49;;;;;;;8.80;4.70;;;;;15.40;98947.00;;;;4937106;29;20110;-65
2023/09/06 05:28:25;;;;;;;6.32;4.65;;;;;15.40;98954.00;;;;4936830;29;20143;-65
2023/09/06 05:30:57;;;;;;;8.77;4.68;;;;;15.40;98960.00;;;;4921260;29;20062;-65
2023/09/06 05:33:24;;;;;;;6.50;4.47;;;;;15.40;98955.00;;;;4936469;29;20055;-65
2023/09/06 05:35:54;;;;;;;8.55;4.35;;;;;15.50;98959.00;;;;4936316;29;20054;-65
2023/09/06 05:38:21;;;;;;;6.22;4.30;;;;;15.50;98964.00;;;;4920921;29;20048;-65
2023/09/06 05:40:50;;;;;;;4.70;3.78;;;;;15.60;98964.00;;;;4936842;29;20043;-65
2023/09/06 05:43:25;;;;;;;5.65;4.30;;;;;15.70;98960.00;;;;4936854;29;20079;-65
2023/09/06 05:45:52;;;;;;;5.10;4.15;;;;;15.80;98965.00;;;;4937787;29;20044;-65
2023/09/06 05:48:19;;;;;;;9.25;4.60;;;;;15.70;98964.00;;;;4921103;29;20051;-65
2023/09/06 05:50:49;;;;;;;5.18;4.30;;;;;15.80;98964.00;;;;4936989;29;20047;-65
2023/09/06 05:53:16;;;;;;;8.45;4.60;;;;;15.90;98970.00;;;;4936357;29;20064;-65
2023/09/06 05:55:43;;;;;;;9.98;4.78;;;;;15.90;98963.00;;;;4936067;29;20056;-65
2023/09/06 05:58:11;;;;;;;5.80;4.53;;;;;16.00;98960.00;;;;4936573;29;20054;-65
2023/09/06 06:00:38;;;;;;;7.20;5.05;;;;;16.00;98973.00;;;;4936219;29;20210;-65
2023/09/06 06:03:05;;;;;;;9.10;5.10;;;;;16.00;98971.00;;;;4936263;29;20079;-65
2023/09/06 06:05:32;;;;;;;7.15;4.53;;;;;16.20;98969.00;;;;4935311;29;20044;-65
2023/09/06 06:07:59;;;;;;;7.35;4.75;;;;;16.30;98972.00;;;;4936975;29;20067;-65
2023/09/06 06:10:30;;;;;;;5.00;4.22;;;;;16.40;98979.00;;;;4935815;29;20050;-65
2023/09/06 06:12:56;;;;;;;8.25;5.05;;;;;16.50;98986.00;;;;4935924;29;20553;-68
2023/09/06 06:15:23;;;;;;;8.50;4.80;;;;;16.50;98993.00;;;;4936433;29;20040;-66
2023/09/06 06:17:50;;;;;;;12.32;6.15;;;;;16.60;98994.00;;;;4935435;29;20472;-66
2023/09/06 06:20:17;;;;;;;13.38;5.43;;;;;16.70;98990.00;;;;4936725;29;20385;-66
2023/09/06 06:22:56;;;;;;;10.77;5.18;;;;;16.70;98993.00;;;;4935656;29;20051;-66
2023/09/06 06:25:22;;;;;;;7.80;5.35;;;;;16.80;98994.00;;;;4936204;29;20047;-66
2023/09/06 06:27:51;;;;;;;7.10;5.80;;;;;16.80;98995.00;;;;4936684;29;20046;-66
2023/09/06 06:30:19;;;;;;;9.98;6.15;;;;;17.00;98993.00;;;;4936636;29;20071;-66
2023/09/06 06:32:46;;;;;;;11.18;6.70;;;;;17.10;98995.00;;;;4935123;29;20050;-66
2023/09/06 06:35:12;;;;;;;7.15;5.18;;;;;17.20;98991.00;;;;4934340;29;20408;-66
2023/09/06 06:37:39;;;;;;;8.13;4.95;;;;;17.30;98999.00;;;;4935909;29;20086;-66
2023/09/06 06:40:06;;;;;;;7.43;4.65;;;;;17.20;98997.00;;;;4936257;29;20044;-66
2023/09/06 06:42:34;;;;;;;7.38;4.40;;;;;17.20;98992.00;;;;4936420;29;20050;-66
2023/09/06 06:45:04;;;;;;;10.13;4.45;;;;;17.20;98990.00;;;;4934470;29;20040;-66
2023/09/06 06:47:31;;;;;;;6.35;4.78;;;;;17.30;98987.00;;;;4936255;29;20555;-66
2023/09/06 06:50:03;;;;;;;8.20;4.88;;;;;17.40;98988.00;;;;4934976;29;20070;-66
2023/09/06 06:52:36;;;;;;;7.30;4.95;;;;;17.50;98984.00;;;;4935268;29;20135;-66
2023/09/06 06:55:04;;;;;;;7.97;5.82;;;;;17.70;98989.00;;;;4935487;29;20522;-66
2023/09/06 06:57:31;;;;;;;11.38;6.75;;;;;17.80;98986.00;;;;4919055;29;20416;-66
2023/09/06 06:59:57;;;;;;;8.20;4.80;;;;;18.00;98989.00;;;;4935776;29;20044;-68
2023/09/06 07:02:24;;;;;;;7.38;5.28;;;;;18.20;98993.00;;;;4935878;29;20131;-67
2023/09/06 07:04:51;;;;;;;4.72;4.10;;;;;18.40;98988.00;;;;4934093;29;20118;-66
2023/09/06 07:07:17;;;;;;;7.60;5.28;;;;;18.60;98988.00;;;;4934738;29;20127;-67
2023/09/06 07:09:44;;;;;;;10.80;4.85;;;;;18.70;98989.00;;;;4934811;29;20075;-67
2023/09/06 07:12:11;;;;;;;5.72;4.40;;;;;18.90;98989.00;;;;4935567;29;20044;-68
2023/09/06 07:14:37;;;;;;;6.32;4.18;;;;;19.00;98985.00;;;;4935211;29;20131;-70
2023/09/06 07:17:04;;;;;;;6.32;4.43;;;;;19.20;98991.00;;;;4935609;29;20049;-68
2023/09/06 07:19:33;;;;;;;8.07;4.28;;;;;19.30;98988.00;;;;4934561;29;20055;-66
2023/09/06 07:22:00;;;;;;;15.63;5.50;;;;;19.40;98989.00;;;;4934543;29;20048;-70
2023/09/06 07:24:27;;;;;;;8.73;6.05;;;;;19.60;98990.00;;;;4935057;29;20043;-70
2023/09/06 07:26:53;;;;;;;9.68;5.93;;;;;19.80;98994.00;;;;4936389;29;20043;-69
2023/09/06 07:29:20;;;;;;;8.63;5.47;;;;;19.90;98994.00;;;;4952203;29;20047;-69
2023/09/06 07:31:47;;;;;;;8.73;4.82;;;;;20.10;98995.00;;;;4919176;29;20146;-64
2023/09/06 07:34:14;;;;;;;6.18;4.28;;;;;20.30;98993.00;;;;4934928;29;20048;-69
2023/09/06 07:36:41;;;;;;;6.05;4.28;;;;;20.40;98994.00;;;;4935961;29;20564;-69
2023/09/06 07:39:08;;;;;;;6.53;3.80;;;;;20.50;99004.00;;;;4919987;29;20564;-69
2023/09/06 07:41:35;;;;;;;3.92;3.17;;;;;20.60;99010.00;;;;4936449;29;20564;-69
2023/09/06 07:44:01;;;;;;;7.43;3.90;;;;;20.80;98999.00;;;;4919848;29;20051;-68
2023/09/06 07:46:29;;;;;;;5.40;3.85;;;;;20.80;99003.00;;;;4935651;29;20086;-69
2023/09/06 07:48:56;;;;;;;4.03;3.33;;;;;20.90;99008.00;;;;4934643;29;20106;-69
2023/09/06 07:51:23;;;;;;;6.97;4.45;;;;;21.00;99003.00;;;;4920444;29;20055;-69
2023/09/06 07:53:50;;;;;;;6.28;3.60;;;;;21.10;99001.00;;;;4934441;29;20052;-70
2023/09/06 07:56:17;;;;;;;5.50;4.47;;;;;21.30;99013.00;;;;4936462;29;20126;-69
2023/09/06 07:58:44;;;;;;;5.57;3.80;;;;;21.40;99005.00;;;;4935698;29;20497;-67
2023/09/06 08:01:10;;;;;;;4.32;3.53;;;;;21.50;99005.00;;;;4936329;29;20556;-68
2023/09/06 08:03:46;;;;;;;12.55;4.72;;;;;21.50;99002.00;;;;4934480;29;20408;-63
2023/09/06 08:06:13;;;;;;;3.97;3.30;;;;;21.70;99007.00;;;;4934959;29;20043;-64
2023/09/06 08:08:41;;;;;;;6.15;3.67;;;;;21.70;99007.00;;;;4934851;29;20059;-64
2023/09/06 08:11:08;;;;;;;4.38;3.53;;;;;21.70;99007.00;;;;4935241;29;20095;-64
2023/09/06 08:13:37;;;;;;;4.78;3.67;;;;;21.80;99010.00;;;;4934339;29;20103;-65
2023/09/06 08:16:05;;;;;;;5.32;3.58;;;;;21.90;99010.00;;;;4917457;29;20047;-65
2023/09/06 08:18:32;;;;;;;6.38;3.90;;;;;22.00;99016.00;;;;4935325;29;20122;-65
2023/09/06 08:21:00;;;;;;;5.90;3.50;;;;;22.10;99013.00;;;;4934810;29;20044;-66
2023/09/06 08:23:30;;;;;;;5.55;3.80;;;;;22.20;99013.00;;;;4934665;29;20386;-65
2023/09/06 08:25:57;;;;;;;7.95;4.10;;;;;22.40;99006.00;;;;4933484;29;20465;-65
2023/09/06 08:28:23;;;;;;;4.25;3.75;;;;;22.60;99018.00;;;;4933845;29;20078;-65
2023/09/06 08:30:50;;;;;;;4.88;3.83;;;;;22.60;99010.00;;;;4917854;29;20090;-65
2023/09/06 08:33:17;;;;;;;5.30;4.10;;;;;22.80;99012.00;;;;4934822;29;20394;-65
2023/09/06 08:35:44;;;;;;;4.60;3.50;;;;;22.90;99020.00;;;;4917042;29;20044;-66
2023/09/06 08:38:10;;;;;;;6.25;3.78;;;;;22.90;99011.00;;;;4934754;29;20040;-66
2023/09/06 08:40:40;;;;;;;5.13;4.05;;;;;23.00;99017.00;;;;4934590;29;20479;-65
2023/09/06 08:43:09;;;;;;;5.28;3.78;;;;;23.20;99021.00;;;;4933504;29;20055;-66
2023/09/06 08:45:39;;;;;;;10.90;4.85;;;;;23.40;99018.00;;;;4932701;29;20055;-65
2023/09/06 08:48:06;;;;;;;6.38;5.03;;;;;23.40;99031.00;;;;4934562;29;20043;-66
2023/09/06 08:50:35;;;;;;;3.75;3.35;;;;;23.50;99026.00;;;;4934619;29;20044;-66
2023/09/06 08:53:03;;;;;;;5.05;3.40;;;;;23.60;99026.00;;;;4933070;29;20055;-66
2023/09/06 08:55:30;;;;;;;3.92;3.53;;;;;23.70;99021.00;;;;4933755;29;20445;-65
2023/09/06 08:57:57;;;;;;;4.97;3.63;;;;;23.70;99027.00;;;;4933267;29;20520;-66
2023/09/06 09:00:24;;;;;;;4.07;3.50;;;;;23.80;99028.00;;;;4936928;29;20563;-65
2023/09/06 09:02:51;;;;;;;4.47;3.38;;;;;23.90;99033.00;;;;4937846;29;20043;-66
2023/09/06 09:05:21;;;;;;;5.57;3.38;;;;;24.00;99033.00;;;;4937349;29;20460;-65
2023/09/06 09:07:58;;;;;;;4.13;3.10;;;;;24.10;99032.00;;;;4938047;29;20047;-65
2023/09/06 09:10:29;;;;;;;4.25;3.85;;;;;24.10;99030.00;;;;4936698;29;20138;-65
2023/09/06 09:12:58;;;;;;;4.13;3.72;;;;;24.20;99019.00;;;;4937922;29;20048;-65
2023/09/06 09:15:26;;;;;;;10.48;4.00;;;;;24.30;99026.00;;;;4936927;29;20047;-67
2023/09/06 09:17:53;;;;;;;3.70;3.40;;;;;24.40;99028.00;;;;4936518;29;20143;-67
2023/09/06 09:20:27;;;;;;;7.03;4.20;;;;;24.50;99023.00;;;;4937919;29;20048;-66
2023/09/06 09:23:00;;;;;;;4.25;3.67;;;;;24.70;99022.00;;;;4937999;29;20074;-66
2023/09/06 09:25:26;;;;;;;4.27;3.67;;;;;24.90;99021.00;;;;4937229;29;20114;-65
2023/09/06 09:27:57;;;;;;;3.90;3.53;;;;;25.00;99030.00;;;;4936297;29;20319;-65
2023/09/06 09:30:27;;;;;;;3.97;3.58;;;;;25.20;99027.00;;;;4936585;29;20237;-65
2023/09/06 09:32:59;;;;;;;4.80;3.30;;;;;25.20;99028.00;;;;4937406;29;20050;-66
2023/09/06 09:35:27;;;;;;;3.53;3.05;;;;;25.30;99029.00;;;;4937130;29;20050;-66
2023/09/06 09:37:53;;;;;;;9.75;3.70;;;;;25.40;99028.00;;;;4921275;29;20057;-66
2023/09/06 09:40:22;;;;;;;3.35;3.05;;;;;25.40;99022.00;;;;4937791;29;20074;-65
2023/09/06 09:43:04;;;;;;;3.25;2.60;;;;;25.50;99032.00;;;;4936527;29;20163;-66
2023/09/06 09:45:45;;;;;;;4.47;3.45;;;;;25.60;99026.00;;;;4935861;29;20051;-66
2023/09/06 09:48:14;;;;;;;4.53;3.25;;;;;25.50;99026.00;;;;4937533;29;20393;-67
2023/09/06 09:50:43;;;;;;;5.32;3.15;;;;;25.70;99021.00;;;;4935987;29;20067;-65
2023/09/06 09:53:12;;;;;;;3.22;2.92;;;;;25.80;99025.00;;;;4937381;29;20047;-66
2023/09/06 09:55:46;;;;;;;3.58;3.13;;;;;25.90;99025.00;;;;4937285;29;20050;-65
2023/09/06 09:58:13;;;;;;;7.82;3.58;;;;;26.00;99022.00;;;;4937636;29;20441;-66
2023/09/06 10:00:41;;;;;;;3.72;3.38;;;;;26.10;99017.00;;;;4937000;29;20044;-65
2023/09/06 10:03:09;;;;;;;3.13;2.85;;;;;26.30;99019.00;;;;4936931;29;20535;-65
2023/09/06 10:05:38;;;;;;;4.55;3.15;;;;;26.30;99020.00;;;;4939229;29;20479;-65
2023/09/06 10:08:09;;;;;;;9.50;3.58;;;;;26.40;99018.00;;;;4937446;29;20075;-64
2023/09/06 10:10:40;;;;;;;3.83;3.13;;;;;26.50;99014.00;;;;4936721;29;20153;-65
2023/09/06 10:13:08;;;;;;;4.50;3.30;;;;;26.50;99014.00;;;;4936795;29;20039;-65
2023/09/06 10:15:37;;;;;;;3.28;2.92;;;;;26.60;99009.00;;;;4936134;29;20056;-65
2023/09/06 10:18:07;;;;;;;3.53;3.20;;;;;26.60;99014.00;;;;4936717;29;20461;-65
2023/09/06 10:20:37;;;;;;;4.10;3.28;;;;;26.60;99015.00;;;;4936706;29;20051;-65
2023/09/06 10:23:06;;;;;;;5.28;3.42;;;;;26.70;99012.00;;;;4935400;29;20075;-65
2023/09/06 10:25:41;;;;;;;4.70;3.30;;;;;26.90;99007.00;;;;4936089;29;20051;-66
2023/09/06 10:28:09;;;;;;;4.15;3.28;;;;;26.90;99009.00;;;;4935134;29;20094;-66
2023/09/06 10:30:42;;;;;;;6.78;3.03;;;;;27.00;99008.00;;;;4936453;29;20098;-66
2023/09/06 10:33:32;;;;;;;3.47;2.97;;;;;27.00;99007.00;;;;4936450;29;20044;-65
2023/09/06 10:36:03;;;;;;;4.47;2.78;;;;;27.10;99004.00;;;;4929128;29;20142;-64
2023/09/06 10:38:30;;;;;;;4.13;3.15;;;;;27.20;99007.00;;;;4934868;29;20047;-65
2023/09/06 10:40:57;;;;;;;2.88;2.65;;;;;27.30;99005.00;;;;4936241;29;20048;-65
2023/09/06 10:43:29;;;;;;;3.63;3.30;;;;;27.40;99013.00;;;;4936113;29;20075;-65
2023/09/06 10:46:05;;;;;;;5.18;2.95;;;;;27.40;99006.00;;;;4934885;29;20051;-65
2023/09/06 10:48:32;;;;;;;4.18;3.00;;;;;27.50;99007.00;;;;4918994;29;20043;-65
2023/09/06 10:51:07;;;;;;;4.07;3.10;;;;;27.50;99008.00;;;;4934930;29;20047;-66
2023/09/06 10:53:35;;;;;;;3.42;3.08;;;;;27.50;99009.00;;;;4934130;29;20059;-65
2023/09/06 10:56:02;;;;;;;3.22;2.80;;;;;27.50;99006.00;;;;4934515;29;20142;-64
2023/09/06 10:58:30;;;;;;;3.78;2.80;;;;;27.60;99006.00;;;;4936019;29;20511;-65
2023/09/06 11:01:13;;;;;;;3.17;2.88;;;;;27.60;99004.00;;;;4934635;29;20154;-64
2023/09/06 11:03:46;;;;;;;4.78;3.42;;;;;27.70;99000.00;;;;4934074;29;20047;-64
2023/09/06 11:06:13;;;;;;;3.25;2.95;;;;;27.80;98997.00;;;;4935798;29;20039;-64
2023/09/06 11:08:40;;;;;;;3.58;2.97;;;;;27.70;98996.00;;;;4934435;29;20059;-65
2023/09/06 11:11:08;;;;;;;5.47;3.15;;;;;27.90;99003.00;;;;4935843;29;20051;-65
2023/09/06 11:13:37;;;;;;;3.28;2.85;;;;;28.00;99004.00;;;;4933906;29;20054;-64
2023/09/06 11:16:05;;;;;;;3.25;2.95;;;;;27.80;99004.00;;;;4935363;29;20481;-65
2023/09/06 11:18:43;;;;;;;3.28;2.88;;;;;27.90;99010.00;;;;4934292;29;20082;-64
2023/09/06 11:21:09;;;;;;;5.55;3.28;;;;;27.90;99008.00;;;;4934424;29;20580;-65
2023/09/06 11:23:44;;;;;;;3.40;3.10;;;;;27.90;98998.00;;;;4933074;29;20493;-66
2023/09/06 11:26:10;;;;;;;3.42;3.13;;;;;28.00;98999.00;;;;4934497;29;20078;-65
2023/09/06 11:28:38;;;;;;;5.43;3.00;;;;;28.10;98997.00;;;;4934130;29;20564;-65
2023/09/06 11:31:18;;;;;;;3.63;2.88;;;;;28.30;98997.00;;;;4935333;29;20063;-65
2023/09/06 11:33:45;;;;;;;3.85;2.90;;;;;28.40;98997.00;;;;4935002;29;20087;-64
2023/09/06 11:36:13;;;;;;;4.75;3.28;;;;;28.40;98995.00;;;;4935435;29;20051;-65
2023/09/06 11:38:42;;;;;;;5.40;3.03;;;;;28.40;98988.00;;;;4935456;29;20051;-65
2023/09/06 11:41:11;;;;;;;4.03;3.15;;;;;28.40;98986.00;;;;4935188;29;20099;-65
2023/09/06 11:43:42;;;;;;;3.50;3.20;;;;;28.50;98988.00;;;;4934840;29;20071;-65
2023/09/06 11:46:12;;;;;;;4.80;3.25;;;;;28.50;98986.00;;;;4935505;29;20408;-65
2023/09/06 11:48:39;;;;;;;3.53;3.00;;;;;28.50;98988.00;;;;4933977;29;20048;-65
2023/09/06 11:51:11;;;;;;;5.45;3.30;;;;;28.60;98988.00;;;;4935087;29;20118;-65
2023/09/06 11:53:43;;;;;;;4.40;3.47;;;;;28.60;98984.00;;;;4934447;29;20058;-65
2023/09/06 11:56:11;;;;;;;4.05;3.47;;;;;28.80;98972.00;;;;4934222;29;20043;-65
2023/09/06 11:58:48;;;;;;;4.30;3.45;;;;;29.00;98971.00;;;;4935451;29;20501;-65
2023/09/06 12:01:22;;;;;;;3.65;3.10;;;;;29.00;98971.00;;;;4935054;29;20118;-65
2023/09/06 12:03:50;;;;;;;3.53;3.22;;;;;29.00;98970.00;;;;4934463;29;20106;-65
2023/09/06 12:06:17;;;;;;;4.32;3.38;;;;;29.00;98970.00;;;;4935435;29;20485;-66
2023/09/06 12:08:44;;;;;;;3.67;3.20;;;;;29.10;98971.00;;;;4933791;29;20076;-65
2023/09/06 12:11:14;;;;;;;4.70;3.53;;;;;29.10;98963.00;;;;4933791;29;20138;-65
2023/09/06 12:13:41;;;;;;;4.35;3.03;;;;;29.30;98964.00;;;;4934407;29;20051;-65
2023/09/06 12:16:09;;;;;;;3.25;2.83;;;;;29.50;98957.00;;;;4934668;29;20489;-65
2023/09/06 12:18:37;;;;;;;5.32;3.63;;;;;29.50;98963.00;;;;4935134;29;20128;-65
2023/09/06 12:21:05;;;;;;;4.50;3.80;;;;;29.50;98954.00;;;;4935181;29;20050;-65
2023/09/06 12:23:33;;;;;;;5.90;3.10;;;;;29.40;98952.00;;;;4933524;29;20143;-65
2023/09/06 12:26:03;;;;;;;4.05;3.38;;;;;29.50;98959.00;;;;4935634;29;20047;-65
2023/09/06 12:28:31;;;;;;;4.03;3.33;;;;;29.50;98954.00;;;;4933904;29;20121;-66